Time;durP1;ratioP1;P1;durP2;ratioP2;P2;SDS_P1;SDS_P2;PMS_P1;PMS_P2;Temp;Humidity;BMP_temperature;BMP_pressure;BME280_temperature;BME280_humidity;BME280_pressure;Samples;Min_cycle;Max_cycle;Signal;HPM_P1;HPM_P2
2021/11/27 00:00:37;;;;;;;3.23;0.80;;;;;;;;;;5116471;28;20639;-76
2021/11/27 00:03:04;;;;;;;4.30;0.97;;;;;;;;;;5111708;28;20199;-76
2021/11/27 00:05:34;;;;;;;3.30;0.90;;;;;;;;;;5111683;28;20610;-76
2021/11/27 00:08:01;;;;;;;4.07;1.00;;;;;;;;;;5111483;28;20204;-76
2021/11/27 00:10:29;;;;;;;3.77;0.90;;;;;;;;;;5112444;28;20311;-76
2021/11/27 00:12:57;;;;;;;3.10;0.90;;;;;;;;;;5115904;27;20255;-76
2021/11/27 00:15:28;;;;;;;5.03;1.00;;;;;;;;;;5116041;28;20761;-76
2021/11/27 00:17:55;;;;;;;5.87;1.10;;;;;;;;;;5115286;27;20247;-76
2021/11/27 00:20:26;;;;;;;5.03;0.90;;;;;;;;;;5114486;28;20310;-76
2021/11/27 00:22:53;;;;;;;3.60;0.80;;;;;;;;;;5114845;28;20875;-76
2021/11/27 00:25:20;;;;;;;3.60;0.93;;;;;;;;;;5115732;28;20207;-77
2021/11/27 00:27:48;;;;;;;2.70;0.80;;;;;;;;;;5119752;27;20289;-76
2021/11/27 00:30:18;;;;;;;4.97;1.20;;;;;;;;;;5115037;27;20713;-76
2021/11/27 00:32:46;;;;;;;3.60;1.00;;;;;;;;;;5115167;27;20739;-76
2021/11/27 00:35:14;;;;;;;4.83;1.03;;;;;;;;;;5119542;27;20282;-76
2021/11/27 00:37:41;;;;;;;6.83;1.53;;;;;;;;;;5114962;27;20288;-77
2021/11/27 00:40:09;;;;;;;5.17;1.30;;;;;;;;;;5125994;27;20229;-76
2021/11/27 00:42:36;;;;;;;5.03;1.17;;;;;;;;;;5115277;27;20293;-77
2021/11/27 00:45:10;;;;;;;4.87;1.40;;;;;;;;;;5114770;28;20299;-76
2021/11/27 00:47:38;;;;;;;4.30;1.00;;;;;;;;;;5114402;28;20194;-76
2021/11/27 00:50:07;;;;;;;3.23;0.93;;;;;;;;;;5118890;27;20305;-76
2021/11/27 00:52:35;;;;;;;4.53;1.10;;;;;;;;;;5115037;27;20609;-77
2021/11/27 00:55:03;;;;;;;4.57;0.90;;;;;;;;;;5125220;27;20290;-76
2021/11/27 00:57:30;;;;;;;5.97;1.23;;;;;;;;;;5126601;27;20202;-76
2021/11/27 00:59:57;;;;;;;3.90;1.10;;;;;;;;;;5114444;28;20288;-76
2021/11/27 01:02:24;;;;;;;5.63;1.00;;;;;;;;;;5114279;27;20207;-76
2021/11/27 01:04:52;;;;;;;4.03;0.97;;;;;;;;;;5114267;27;20284;-77
2021/11/27 01:07:20;;;;;;;4.33;1.10;;;;;;;;;;5113955;27;20283;-76
2021/11/27 01:09:47;;;;;;;4.83;1.33;;;;;;;;;;5118913;27;20307;-76
2021/11/27 01:12:15;;;;;;;5.87;2.07;;;;;;;;;;5124913;27;20287;-76
2021/11/27 01:14:42;;;;;;;5.47;1.43;;;;;;;;;;5134939;27;20304;-76
2021/11/27 01:17:10;;;;;;;6.00;1.17;;;;;;;;;;5123945;27;20315;-76
2021/11/27 01:19:39;;;;;;;6.47;1.50;;;;;;;;;;5114055;28;20228;-76
2021/11/27 01:22:07;;;;;;;4.73;1.47;;;;;;;;;;5112833;27;20310;-76
2021/11/27 01:24:36;;;;;;;6.87;2.07;;;;;;;;;;5118005;27;20224;-76
2021/11/27 01:27:03;;;;;;;6.50;1.30;;;;;;;;;;5113579;28;20671;-77
2021/11/27 01:29:30;;;;;;;9.97;1.33;;;;;;;;;;5114001;28;20204;-76
2021/11/27 01:31:58;;;;;;;6.83;1.20;;;;;;;;;;5113681;28;20285;-76
2021/11/27 01:34:25;;;;;;;6.20;1.57;;;;;;;;;;5114077;27;20401;-76
2021/11/27 01:36:52;;;;;;;8.67;1.50;;;;;;;;;;5113516;28;20231;-76
2021/11/27 01:39:20;;;;;;;3.27;1.10;;;;;;;;;;5125678;27;20291;-76
2021/11/27 01:41:48;;;;;;;6.00;1.20;;;;;;;;;;5119746;27;20648;-76
2021/11/27 01:44:16;;;;;;;4.53;1.03;;;;;;;;;;5122881;27;20570;-76
2021/11/27 01:46:43;;;;;;;3.90;1.10;;;;;;;;;;5132676;27;20290;-76
2021/11/27 01:49:11;;;;;;;4.80;1.10;;;;;;;;;;5118928;27;20291;-76
2021/11/27 01:51:39;;;;;;;4.53;1.03;;;;;;;;;;5118706;27;20227;-76
2021/11/27 01:54:08;;;;;;;7.93;1.70;;;;;;;;;;5113044;27;20283;-76
2021/11/27 01:56:37;;;;;;;7.03;2.83;;;;;;;;;;5113434;28;20212;-76
2021/11/27 01:59:06;;;;;;;7.27;1.60;;;;;;;;;;5113856;27;20229;-76
2021/11/27 02:01:35;;;;;;;7.23;1.90;;;;;;;;;;5113756;28;20233;-76
2021/11/27 02:04:04;;;;;;;8.20;1.93;;;;;;;;;;5113460;28;20232;-76
2021/11/27 02:06:31;;;;;;;5.30;1.47;;;;;;;;;;5112966;28;20242;-76
2021/11/27 02:08:59;;;;;;;6.03;1.87;;;;;;;;;;5113012;28;20282;-76
2021/11/27 02:11:28;;;;;;;5.17;1.80;;;;;;;;;;5113172;28;20305;-76
2021/11/27 02:13:55;;;;;;;9.37;1.67;;;;;;;;;;5113918;27;20316;-76
2021/11/27 02:16:24;;;;;;;4.60;1.50;;;;;;;;;;5119832;27;20225;-76
2021/11/27 02:18:51;;;;;;;7.37;1.70;;;;;;;;;;5111549;28;20243;-76
2021/11/27 02:21:22;;;;;;;9.60;1.67;;;;;;;;;;5113316;28;20274;-76
2021/11/27 02:23:50;;;;;;;6.27;2.00;;;;;;;;;;5113222;28;20232;-76
2021/11/27 02:26:18;;;;;;;7.37;2.10;;;;;;;;;;5107668;28;20753;-76
2021/11/27 02:28:47;;;;;;;4.03;1.50;;;;;;;;;;5112815;28;20287;-76
2021/11/27 02:31:14;;;;;;;4.50;1.90;;;;;;;;;;5115623;27;20309;-76
2021/11/27 02:33:42;;;;;;;6.33;1.50;;;;;;;;;;5112558;28;20281;-75
2021/11/27 02:36:09;;;;;;;11.80;1.93;;;;;;;;;;5112197;27;20302;-76
2021/11/27 02:38:38;;;;;;;5.00;1.40;;;;;;;;;;5116978;27;20279;-76
2021/11/27 02:41:05;;;;;;;7.57;2.33;;;;;;;;;;5112263;28;20285;-76
2021/11/27 02:43:33;;;;;;;7.47;2.10;;;;;;;;;;5112049;28;20219;-76
2021/11/27 02:46:00;;;;;;;9.93;1.70;;;;;;;;;;5112097;28;20709;-76
2021/11/27 02:48:27;;;;;;;5.73;1.73;;;;;;;;;;5112692;28;20251;-76
2021/11/27 02:50:55;;;;;;;8.47;1.77;;;;;;;;;;5112707;28;20260;-76
2021/11/27 02:53:22;;;;;;;6.67;1.80;;;;;;;;;;5111749;28;20278;-76
2021/11/27 02:55:50;;;;;;;7.97;1.90;;;;;;;;;;5112589;28;20240;-76
2021/11/27 02:58:18;;;;;;;6.23;2.23;;;;;;;;;;5112919;28;20233;-76
2021/11/27 03:00:45;;;;;;;4.57;1.70;;;;;;;;;;5112853;28;20272;-76
2021/11/27 03:03:13;;;;;;;10.27;1.97;;;;;;;;;;5111858;28;20356;-76
2021/11/27 03:05:40;;;;;;;5.70;1.60;;;;;;;;;;5112142;28;20301;-76
2021/11/27 03:08:07;;;;;;;7.17;1.80;;;;;;;;;;5112518;28;20283;-76
2021/11/27 03:10:34;;;;;;;6.57;1.97;;;;;;;;;;5117083;28;20314;-76
2021/11/27 03:13:03;;;;;;;7.63;1.80;;;;;;;;;;5112440;28;20295;-76
2021/11/27 03:15:31;;;;;;;5.57;1.50;;;;;;;;;;5112171;28;20258;-76
2021/11/27 03:17:59;;;;;;;4.07;1.67;;;;;;;;;;5111857;28;20202;-76
2021/11/27 03:20:26;;;;;;;7.37;1.57;;;;;;;;;;5112223;28;20226;-76
2021/11/27 03:22:53;;;;;;;4.77;1.20;;;;;;;;;;5118082;28;20998;-76
2021/11/27 03:25:20;;;;;;;5.43;1.20;;;;;;;;;;5112080;28;20745;-76
2021/11/27 03:27:47;;;;;;;7.57;1.70;;;;;;;;;;5105405;28;20195;-76
2021/11/27 03:30:18;;;;;;;6.30;1.23;;;;;;;;;;5109183;28;20292;-76
2021/11/27 03:32:45;;;;;;;5.73;1.43;;;;;;;;;;5111051;28;20290;-76
2021/11/27 03:35:12;;;;;;;7.57;1.53;;;;;;;;;;5112344;28;20278;-76
2021/11/27 03:37:40;;;;;;;6.30;1.50;;;;;;;;;;5113471;28;20280;-76
2021/11/27 03:40:09;;;;;;;2.97;1.13;;;;;;;;;;5112931;28;20282;-76
2021/11/27 03:42:36;;;;;;;7.40;1.90;;;;;;;;;;5127923;28;20294;-76
2021/11/27 03:45:05;;;;;;;6.87;1.70;;;;;;;;;;5118049;28;20281;-76
2021/11/27 03:47:34;;;;;;;6.47;1.73;;;;;;;;;;5124944;27;20293;-76
2021/11/27 03:50:01;;;;;;;10.80;1.70;;;;;;;;;;5106461;27;20293;-76
2021/11/27 03:52:28;;;;;;;7.13;1.37;;;;;;;;;;5115274;28;20225;-76
2021/11/27 03:54:56;;;;;;;6.93;1.80;;;;;;;;;;5115554;28;20676;-76
2021/11/27 03:57:23;;;;;;;6.10;1.40;;;;;;;;;;5115705;28;20203;-76
2021/11/27 03:59:50;;;;;;;8.10;1.67;;;;;;;;;;5119373;27;20285;-76
2021/11/27 04:02:17;;;;;;;7.83;1.40;;;;;;;;;;5126779;27;20284;-75
2021/11/27 04:04:46;;;;;;;6.30;1.27;;;;;;;;;;5115620;28;20230;-76
2021/11/27 04:07:13;;;;;;;10.20;1.60;;;;;;;;;;5115477;27;20634;-75
2021/11/27 04:09:41;;;;;;;7.30;1.40;;;;;;;;;;5115965;28;20281;-76
2021/11/27 04:12:08;;;;;;;7.67;1.77;;;;;;;;;;5114932;27;20310;-76
2021/11/27 04:14:35;;;;;;;5.27;1.60;;;;;;;;;;5115283;28;20315;-76
2021/11/27 04:17:02;;;;;;;5.20;1.53;;;;;;;;;;5121817;27;20289;-76
2021/11/27 04:19:30;;;;;;;9.73;1.83;;;;;;;;;;5115070;27;20268;-76
2021/11/27 04:21:58;;;;;;;7.97;1.50;;;;;;;;;;5115185;28;20274;-76
2021/11/27 04:24:25;;;;;;;9.43;1.47;;;;;;;;;;5115017;28;20289;-75
2021/11/27 04:26:52;;;;;;;8.77;1.87;;;;;;;;;;5114841;28;20633;-76
2021/11/27 04:29:20;;;;;;;9.67;1.50;;;;;;;;;;5114451;28;20210;-76
2021/11/27 04:31:48;;;;;;;10.60;1.60;;;;;;;;;;5115265;28;20318;-76
2021/11/27 04:34:15;;;;;;;10.87;1.60;;;;;;;;;;5114789;28;20199;-76
2021/11/27 04:36:42;;;;;;;6.30;1.50;;;;;;;;;;5114681;27;20289;-76
2021/11/27 04:39:11;;;;;;;8.03;1.63;;;;;;;;;;5114867;28;20234;-76
2021/11/27 04:41:38;;;;;;;8.30;2.07;;;;;;;;;;5114698;28;20637;-76
2021/11/27 04:44:05;;;;;;;9.57;1.60;;;;;;;;;;5115365;28;20223;-76
2021/11/27 04:46:32;;;;;;;7.97;1.87;;;;;;;;;;5114140;28;20193;-76
2021/11/27 04:49:00;;;;;;;12.97;2.40;;;;;;;;;;5114992;27;20293;-76
2021/11/27 04:51:27;;;;;;;9.77;1.90;;;;;;;;;;5114258;28;20323;-77
2021/11/27 04:53:54;;;;;;;10.97;2.00;;;;;;;;;;5114672;28;20283;-76
2021/11/27 04:56:23;;;;;;;9.53;1.93;;;;;;;;;;5117476;27;20278;-76
2021/11/27 04:58:50;;;;;;;7.00;1.40;;;;;;;;;;5113602;28;20281;-76
2021/11/27 05:01:17;;;;;;;10.23;1.63;;;;;;;;;;5119072;27;20226;-76
2021/11/27 05:03:45;;;;;;;7.67;1.70;;;;;;;;;;5113374;28;20197;-76
2021/11/27 05:06:12;;;;;;;11.97;2.10;;;;;;;;;;5116773;27;20240;-76
2021/11/27 05:08:40;;;;;;;11.53;1.90;;;;;;;;;;5114328;27;20282;-77
2021/11/27 05:11:07;;;;;;;10.43;1.73;;;;;;;;;;5114385;27;20318;-76
2021/11/27 05:13:39;;;;;;;9.33;1.83;;;;;;;;;;5113969;28;20288;-76
2021/11/27 05:16:06;;;;;;;11.10;1.60;;;;;;;;;;5113761;28;20195;-76
2021/11/27 05:18:33;;;;;;;8.87;2.10;;;;;;;;;;5114365;28;20721;-76
2021/11/27 05:21:01;;;;;;;11.03;1.53;;;;;;;;;;5113267;28;20254;-76
2021/11/27 05:23:28;;;;;;;7.77;2.17;;;;;;;;;;5119983;27;20196;-76
2021/11/27 05:25:57;;;;;;;7.03;1.77;;;;;;;;;;5114333;28;20204;-76
2021/11/27 05:28:24;;;;;;;8.90;1.50;;;;;;;;;;5113010;28;20289;-76
2021/11/27 05:30:53;;;;;;;10.80;1.77;;;;;;;;;;5114033;28;20300;-76
2021/11/27 05:33:24;;;;;;;9.93;1.57;;;;;;;;;;5113934;28;20225;-76
2021/11/27 05:35:52;;;;;;;5.77;1.67;;;;;;;;;;5113815;28;20204;-76
2021/11/27 05:38:19;;;;;;;8.07;1.63;;;;;;;;;;5113302;28;20284;-76
2021/11/27 05:40:47;;;;;;;10.07;1.60;;;;;;;;;;5113625;27;20739;-76
2021/11/27 05:43:14;;;;;;;6.30;1.37;;;;;;;;;;5112981;27;20240;-77
2021/11/27 05:45:41;;;;;;;7.43;1.53;;;;;;;;;;5113973;28;20649;-76
2021/11/27 05:48:10;;;;;;;8.63;1.73;;;;;;;;;;5113879;28;20231;-77
2021/11/27 05:50:37;;;;;;;8.33;1.57;;;;;;;;;;5113774;28;20239;-76
2021/11/27 05:53:05;;;;;;;9.13;1.33;;;;;;;;;;5119670;27;20231;-77
2021/11/27 05:55:32;;;;;;;5.47;1.63;;;;;;;;;;5112809;28;20204;-76
2021/11/27 05:57:59;;;;;;;9.43;1.30;;;;;;;;;;5113178;28;20228;-76
2021/11/27 06:00:27;;;;;;;7.80;1.50;;;;;;;;;;5112431;28;20233;-76
2021/11/27 06:02:54;;;;;;;7.27;1.03;;;;;;;;;;5113617;28;20225;-76
2021/11/27 06:05:28;;;;;;;4.43;1.07;;;;;;;;;;5114523;27;20249;-77
2021/11/27 06:07:55;;;;;;;10.20;1.20;;;;;;;;;;5107268;27;20199;-76
2021/11/27 06:10:22;;;;;;;4.53;0.93;;;;;;;;;;5127991;27;20275;-76
2021/11/27 06:12:50;;;;;;;6.43;1.10;;;;;;;;;;5112814;28;20311;-76
2021/11/27 06:15:17;;;;;;;6.93;0.97;;;;;;;;;;5112738;27;20321;-76
2021/11/27 06:17:44;;;;;;;7.33;1.20;;;;;;;;;;5116981;27;20197;-76
2021/11/27 06:20:12;;;;;;;5.60;1.00;;;;;;;;;;5112778;28;20318;-77
2021/11/27 06:22:41;;;;;;;5.03;1.00;;;;;;;;;;5112769;27;20285;-76
2021/11/27 06:25:09;;;;;;;5.77;0.90;;;;;;;;;;5112247;28;20232;-77
2021/11/27 06:27:38;;;;;;;5.63;0.97;;;;;;;;;;5116778;27;20631;-77
2021/11/27 06:30:06;;;;;;;5.27;1.10;;;;;;;;;;5112474;28;20695;-77
2021/11/27 06:32:33;;;;;;;5.93;0.87;;;;;;;;;;5112882;28;20270;-76
2021/11/27 06:35:00;;;;;;;3.60;0.90;;;;;;;;;;5112230;28;20290;-76
2021/11/27 06:37:27;;;;;;;4.57;1.13;;;;;;;;;;5115639;27;20290;-76
2021/11/27 06:39:59;;;;;;;6.63;1.10;;;;;;;;;;5111164;28;20232;-77
2021/11/27 06:42:27;;;;;;;6.63;2.10;;;;;;;;;;5112889;27;20201;-76
2021/11/27 06:44:54;;;;;;;6.40;1.30;;;;;;;;;;5112080;28;20200;-77
2021/11/27 06:47:23;;;;;;;5.10;0.97;;;;;;;;;;5115033;28;20196;-76
2021/11/27 06:49:50;;;;;;;8.43;1.30;;;;;;;;;;5113332;28;20200;-76
2021/11/27 06:52:18;;;;;;;5.17;1.00;;;;;;;;;;5113876;27;20255;-77
2021/11/27 06:54:45;;;;;;;6.57;1.60;;;;;;;;;;5112105;28;20291;-77
2021/11/27 06:57:14;;;;;;;9.43;1.20;;;;;;;;;;5111794;28;20292;-77
2021/11/27 06:59:41;;;;;;;6.60;1.10;;;;;;;;;;5112443;28;20283;-77
2021/11/27 07:02:08;;;;;;;6.43;1.33;;;;;;;;;;5112136;28;20196;-77
2021/11/27 07:04:36;;;;;;;6.77;1.17;;;;;;;;;;5112369;28;20288;-76
2021/11/27 07:07:03;;;;;;;5.60;1.20;;;;;;;;;;5111890;28;20215;-76
2021/11/27 07:09:30;;;;;;;7.57;1.50;;;;;;;;;;5117463;28;20807;-76
2021/11/27 07:11:58;;;;;;;6.20;1.50;;;;;;;;;;5112354;28;20270;-76
2021/11/27 07:14:26;;;;;;;7.77;1.40;;;;;;;;;;5112569;28;20224;-77
2021/11/27 07:16:53;;;;;;;7.67;1.13;;;;;;;;;;5112538;28;20200;-76
2021/11/27 07:19:21;;;;;;;3.63;1.17;;;;;;;;;;5112269;28;20259;-76
2021/11/27 07:21:48;;;;;;;7.63;1.47;;;;;;;;;;5117554;27;20628;-77
2021/11/27 07:24:15;;;;;;;8.03;1.80;;;;;;;;;;5118463;27;20307;-77
2021/11/27 07:26:42;;;;;;;7.90;2.20;;;;;;;;;;5116147;28;20205;-77
2021/11/27 07:29:09;;;;;;;7.97;2.13;;;;;;;;;;5121162;27;20292;-77
2021/11/27 07:31:38;;;;;;;8.20;2.00;;;;;;;;;;5116396;28;20260;-77
2021/11/27 07:34:05;;;;;;;9.77;1.30;;;;;;;;;;5116446;27;20284;-77
2021/11/27 07:36:32;;;;;;;7.00;1.20;;;;;;;;;;5115789;28;20201;-77
2021/11/27 07:39:00;;;;;;;4.87;0.77;;;;;;;;;;5115753;28;20229;-77
2021/11/27 07:41:27;;;;;;;6.63;1.10;;;;;;;;;;5126121;27;20237;-76
2021/11/27 07:43:54;;;;;;;8.63;1.10;;;;;;;;;;5118711;27;20283;-77
2021/11/27 07:46:21;;;;;;;9.83;1.20;;;;;;;;;;5125100;27;20329;-77
2021/11/27 07:48:50;;;;;;;8.93;1.63;;;;;;;;;;5126146;27;20737;-78
2021/11/27 07:51:18;;;;;;;6.00;1.40;;;;;;;;;;5123157;27;20201;-77
2021/11/27 07:53:45;;;;;;;7.00;1.30;;;;;;;;;;5115380;27;20240;-77
2021/11/27 07:56:12;;;;;;;10.27;1.47;;;;;;;;;;5115628;27;20293;-77
2021/11/27 07:58:39;;;;;;;5.13;1.00;;;;;;;;;;5115114;28;20292;-76
2021/11/27 08:01:06;;;;;;;5.17;1.00;;;;;;;;;;5115102;28;20225;-77
2021/11/27 08:03:35;;;;;;;6.57;1.23;;;;;;;;;;5115369;27;20600;-77
2021/11/27 08:06:03;;;;;;;9.57;1.43;;;;;;;;;;5115292;27;20687;-77
2021/11/27 08:08:30;;;;;;;7.53;1.20;;;;;;;;;;5114914;27;20287;-76
2021/11/27 08:10:58;;;;;;;7.40;1.20;;;;;;;;;;5115001;28;20276;-77
2021/11/27 08:13:25;;;;;;;3.93;1.00;;;;;;;;;;5115035;28;20264;-77
2021/11/27 08:15:52;;;;;;;7.33;1.00;;;;;;;;;;5118723;27;20296;-77
2021/11/27 08:18:19;;;;;;;6.27;0.90;;;;;;;;;;5122895;27;20721;-77
2021/11/27 08:20:49;;;;;;;5.40;1.40;;;;;;;;;;5113212;28;20674;-77
2021/11/27 08:23:18;;;;;;;6.43;1.27;;;;;;;;;;5115041;27;20288;-76
2021/11/27 08:25:45;;;;;;;16.83;4.33;;;;;;;;;;5115358;28;20308;-76
2021/11/27 08:28:12;;;;;;;8.37;1.50;;;;;;;;;;5106672;28;20283;-76
2021/11/27 08:30:40;;;;;;;6.47;1.53;;;;;;;;;;5114447;28;20291;-76
2021/11/27 08:33:07;;;;;;;10.20;1.50;;;;;;;;;;5115124;28;20307;-77
2021/11/27 08:35:34;;;;;;;8.00;1.37;;;;;;;;;;5114701;28;20292;-77
2021/11/27 08:38:01;;;;;;;7.27;1.03;;;;;;;;;;5115472;28;20207;-76
2021/11/27 08:40:30;;;;;;;4.60;1.50;;;;;;;;;;5114945;27;20238;-77
2021/11/27 08:42:58;;;;;;;4.57;1.77;;;;;;;;;;5114719;28;20277;-77
2021/11/27 08:45:25;;;;;;;9.30;1.40;;;;;;;;;;5114917;28;20228;-76
2021/11/27 08:47:52;;;;;;;6.83;1.43;;;;;;;;;;5108172;28;20281;-76
2021/11/27 08:50:20;;;;;;;6.17;1.50;;;;;;;;;;5114009;27;20224;-77
2021/11/27 08:52:47;;;;;;;5.23;1.27;;;;;;;;;;5114720;27;20717;-76
2021/11/27 08:55:15;;;;;;;11.60;1.27;;;;;;;;;;5114297;28;20235;-77
2021/11/27 08:57:43;;;;;;;7.50;1.60;;;;;;;;;;5114078;28;20262;-77
2021/11/27 09:00:12;;;;;;;7.33;0.87;;;;;;;;;;5115444;28;20284;-77
2021/11/27 09:02:39;;;;;;;6.00;1.10;;;;;;;;;;5114654;28;20244;-77
2021/11/27 09:05:07;;;;;;;6.07;2.53;;;;;;;;;;5114298;28;20943;-77
2021/11/27 09:07:34;;;;;;;5.70;0.97;;;;;;;;;;5114197;27;20224;-77
2021/11/27 09:10:01;;;;;;;5.03;1.13;;;;;;;;;;5114370;27;20237;-77
2021/11/27 09:12:29;;;;;;;5.80;1.37;;;;;;;;;;5120300;27;20209;-76
2021/11/27 09:14:58;;;;;;;7.30;1.37;;;;;;;;;;5112957;27;20217;-75
2021/11/27 09:17:26;;;;;;;9.00;2.17;;;;;;;;;;5125138;27;20219;-77
2021/11/27 09:19:55;;;;;;;5.67;1.10;;;;;;;;;;5113083;27;20229;-78
2021/11/27 09:22:23;;;;;;;7.60;1.20;;;;;;;;;;5114003;28;20209;-76
2021/11/27 09:24:50;;;;;;;11.27;1.53;;;;;;;;;;5112996;28;20225;-76
2021/11/27 09:27:17;;;;;;;9.43;1.90;;;;;;;;;;5114096;28;20285;-77
2021/11/27 09:29:44;;;;;;;8.93;1.63;;;;;;;;;;5112949;27;20288;-76
2021/11/27 09:32:14;;;;;;;11.53;1.93;;;;;;;;;;5129256;27;20825;-78
2021/11/27 09:34:43;;;;;;;8.43;1.53;;;;;;;;;;5119115;27;20690;-78
2021/11/27 09:37:13;;;;;;;6.43;1.20;;;;;;;;;;5117974;27;20238;-79
2021/11/27 09:39:42;;;;;;;4.43;1.37;;;;;;;;;;5113464;28;20590;-77
2021/11/27 09:42:10;;;;;;;9.63;1.60;;;;;;;;;;5112466;28;20198;-77
2021/11/27 09:44:38;;;;;;;6.23;1.30;;;;;;;;;;5112526;28;20590;-76
2021/11/27 09:47:05;;;;;;;6.33;1.40;;;;;;;;;;5110351;28;20655;-77
2021/11/27 09:49:37;;;;;;;7.27;1.30;;;;;;;;;;5112474;28;20275;-76
2021/11/27 09:52:05;;;;;;;8.73;1.27;;;;;;;;;;5112877;28;20200;-76
2021/11/27 09:54:32;;;;;;;4.97;1.10;;;;;;;;;;5112486;28;20240;-76
2021/11/27 09:56:59;;;;;;;7.23;1.10;;;;;;;;;;5116551;27;20228;-76
2021/11/27 09:59:26;;;;;;;8.20;2.80;;;;;;;;;;5115852;27;20234;-77
2021/11/27 10:01:55;;;;;;;9.37;1.27;;;;;;;;;;5112851;27;20569;-75
2021/11/27 10:04:23;;;;;;;8.67;1.33;;;;;;;;;;5112553;28;20273;-75
2021/11/27 10:06:52;;;;;;;10.73;1.47;;;;;;;;;;5112779;28;20274;-75
2021/11/27 10:09:20;;;;;;;6.70;1.33;;;;;;;;;;5113021;28;20288;-75
2021/11/27 10:11:48;;;;;;;9.33;1.83;;;;;;;;;;5112657;28;20832;-77
2021/11/27 10:14:15;;;;;;;9.10;1.53;;;;;;;;;;5112983;28;20218;-77
2021/11/27 10:17:01;;;;;;;9.17;1.50;;;;;;;;;;5111855;28;20194;-76
2021/11/27 10:19:29;;;;;;;8.97;1.60;;;;;;;;;;5125755;27;20629;-74
2021/11/27 10:21:59;;;;;;;9.67;1.90;;;;;;;;;;5097630;28;20285;-74
2021/11/27 10:24:27;;;;;;;5.67;1.63;;;;;;;;;;5112932;27;20237;-77
2021/11/27 10:26:57;;;;;;;6.43;1.57;;;;;;;;;;5112922;28;20285;-75
2021/11/27 10:29:26;;;;;;;8.63;1.30;;;;;;;;;;5113354;27;20286;-77
2021/11/27 10:31:54;;;;;;;7.40;1.40;;;;;;;;;;5112762;28;20198;-75
2021/11/27 10:34:23;;;;;;;5.97;1.33;;;;;;;;;;5112312;28;20211;-75
2021/11/27 10:36:50;;;;;;;3.93;1.13;;;;;;;;;;5111884;28;20297;-76
2021/11/27 10:39:19;;;;;;;5.67;1.23;;;;;;;;;;5115399;27;20292;-75
2021/11/27 10:41:56;;;;;;;7.47;1.20;;;;;;;;;;5112691;28;20215;-75
2021/11/27 10:44:28;;;;;;;5.73;1.53;;;;;;;;;;5112521;28;20245;-76
2021/11/27 10:47:08;;;;;;;11.33;5.87;;;;;;;;;;5111573;28;20277;-76
2021/11/27 10:49:35;;;;;;;5.07;1.70;;;;;;;;;;5111990;28;20194;-78
2021/11/27 10:52:06;;;;;;;9.37;1.60;;;;;;;;;;5113572;28;20667;-78
2021/11/27 10:54:44;;;;;;;7.47;1.70;;;;;;;;;;5112250;28;20297;-78
2021/11/27 10:57:24;;;;;;;7.63;1.40;;;;;;;;;;5117014;27;20290;-79
2021/11/27 10:59:52;;;;;;;5.97;1.20;;;;;;;;;;5110259;28;20626;-77
2021/11/27 11:02:22;;;;;;;3.73;1.00;;;;;;;;;;5111628;28;20607;-79
2021/11/27 11:05:00;;;;;;;7.17;1.30;;;;;;;;;;5097906;28;20205;-79
2021/11/27 11:07:28;;;;;;;5.23;1.40;;;;;;;;;;5113739;28;20281;-79
2021/11/27 11:10:06;;;;;;;6.00;1.50;;;;;;;;;;5112215;28;20599;-79
2021/11/27 11:12:35;;;;;;;6.10;1.33;;;;;;;;;;5111976;28;20685;-79
2021/11/27 11:15:14;;;;;;;7.53;1.40;;;;;;;;;;5117515;28;20283;-77
2021/11/27 11:17:42;;;;;;;6.43;1.50;;;;;;;;;;5107670;28;20198;-78
2021/11/27 11:20:13;;;;;;;7.33;1.67;;;;;;;;;;5108470;28;20255;-78
2021/11/27 11:22:40;;;;;;;6.03;1.27;;;;;;;;;;5093995;28;20238;-79
2021/11/27 11:25:11;;;;;;;7.40;1.17;;;;;;;;;;5108534;28;20607;-81
2021/11/27 11:27:41;;;;;;;5.90;1.30;;;;;;;;;;5110047;28;20248;-79
2021/11/27 11:30:12;;;;;;;8.13;1.77;;;;;;;;;;5106969;28;20209;-79
2021/11/27 11:32:39;;;;;;;5.73;1.40;;;;;;;;;;5105881;28;20202;-79
2021/11/27 11:35:06;;;;;;;7.43;1.47;;;;;;;;;;5111952;28;20312;-79
2021/11/27 11:37:34;;;;;;;5.27;1.20;;;;;;;;;;5117627;28;20194;-78
2021/11/27 11:40:01;;;;;;;5.73;1.37;;;;;;;;;;5110644;28;20202;-78
2021/11/27 11:42:31;;;;;;;5.10;1.10;;;;;;;;;;5111497;28;20271;-79
2021/11/27 11:44:58;;;;;;;6.83;0.97;;;;;;;;;;5110427;28;20281;-79
2021/11/27 11:47:25;;;;;;;6.33;1.27;;;;;;;;;;5112628;28;20301;-79
2021/11/27 11:49:53;;;;;;;7.27;1.17;;;;;;;;;;5111880;28;20239;-79
2021/11/27 11:52:25;;;;;;;5.77;1.30;;;;;;;;;;5111722;28;20280;-79
2021/11/27 11:54:52;;;;;;;9.27;1.77;;;;;;;;;;5109786;28;20315;-77
2021/11/27 11:57:20;;;;;;;6.23;1.27;;;;;;;;;;5120067;28;20297;-77
2021/11/27 11:59:50;;;;;;;8.80;1.70;;;;;;;;;;5128506;28;20197;-77
2021/11/27 12:02:19;;;;;;;7.20;2.07;;;;;;;;;;5112247;28;20201;-77
2021/11/27 12:05:01;;;;;;;6.17;1.20;;;;;;;;;;5119584;28;20191;-77
2021/11/27 12:07:43;;;;;;;11.33;2.00;;;;;;;;;;5131780;27;20287;-78
2021/11/27 12:10:13;;;;;;;5.63;1.80;;;;;;;;;;5119573;27;20233;-77
2021/11/27 12:12:41;;;;;;;6.60;1.77;;;;;;;;;;5114743;28;20266;-77
2021/11/27 12:15:10;;;;;;;9.00;1.83;;;;;;;;;;5118903;27;20308;-78
2021/11/27 12:17:52;;;;;;;10.73;1.90;;;;;;;;;;5122861;27;20239;-78
2021/11/27 12:20:19;;;;;;;6.80;1.77;;;;;;;;;;5114242;28;20229;-78
2021/11/27 12:22:46;;;;;;;8.93;1.43;;;;;;;;;;5113738;27;20291;-78
2021/11/27 12:25:17;;;;;;;6.30;1.50;;;;;;;;;;5114026;28;20193;-79
2021/11/27 12:28:03;;;;;;;6.77;1.60;;;;;;;;;;5114271;28;20200;-77
2021/11/27 12:30:51;;;;;;;5.87;1.20;;;;;;;;;;5114451;28;20284;-78
2021/11/27 12:33:33;;;;;;;5.87;1.10;;;;;;;;;;5113468;28;20252;-78
2021/11/27 12:36:00;;;;;;;13.67;7.33;;;;;;;;;;5109523;28;20212;-78
2021/11/27 12:38:31;;;;;;;10.10;6.00;;;;;;;;;;5113697;28;20728;-77
2021/11/27 12:40:59;;;;;;;7.33;3.30;;;;;;;;;;5115684;27;20598;-77
2021/11/27 12:43:26;;;;;;;6.53;1.80;;;;;;;;;;5110335;27;20231;-78
2021/11/27 12:45:57;;;;;;;6.93;3.00;;;;;;;;;;5112905;28;20224;-77
2021/11/27 12:48:39;;;;;;;7.90;2.33;;;;;;;;;;5112973;28;20211;-78
2021/11/27 12:51:22;;;;;;;7.87;2.00;;;;;;;;;;5114437;28;20567;-78
2021/11/27 12:54:25;;;;;;;6.60;1.20;;;;;;;;;;5113305;28;20321;-78
2021/11/27 12:57:11;;;;;;;6.07;2.03;;;;;;;;;;5112815;28;20195;-78
2021/11/27 12:59:44;;;;;;;4.83;1.30;;;;;;;;;;5118218;27;20286;-78
2021/11/27 13:02:14;;;;;;;5.40;0.97;;;;;;;;;;5113465;28;20210;-78
2021/11/27 13:04:41;;;;;;;7.30;1.73;;;;;;;;;;5112752;28;20204;-79
2021/11/27 13:07:09;;;;;;;3.67;1.13;;;;;;;;;;5113552;28;20289;-78
2021/11/27 13:09:36;;;;;;;3.93;1.30;;;;;;;;;;5118216;27;20227;-78
2021/11/27 13:12:11;;;;;;;5.30;1.30;;;;;;;;;;5113240;27;20676;-78
2021/11/27 13:14:38;;;;;;;4.03;1.03;;;;;;;;;;5113669;28;20220;-78
2021/11/27 13:17:07;;;;;;;4.63;1.50;;;;;;;;;;5112638;27;20200;-78
2021/11/27 13:19:37;;;;;;;8.67;1.53;;;;;;;;;;5111837;28;20773;-78
2021/11/27 13:22:05;;;;;;;6.73;1.37;;;;;;;;;;5112577;28;20726;-78
2021/11/27 13:24:32;;;;;;;3.77;1.20;;;;;;;;;;5106699;28;20197;-75
2021/11/27 13:27:00;;;;;;;5.13;1.63;;;;;;;;;;5112170;28;20209;-75
2021/11/27 13:29:28;;;;;;;3.70;1.10;;;;;;;;;;5112717;27;20197;-74
2021/11/27 13:31:55;;;;;;;5.00;1.00;;;;;;;;;;5099205;28;20201;-75
2021/11/27 13:34:23;;;;;;;4.17;1.00;;;;;;;;;;5112480;27;20320;-75
2021/11/27 13:36:54;;;;;;;3.13;0.83;;;;;;;;;;5112422;28;20202;-74
2021/11/27 13:39:22;;;;;;;4.20;1.20;;;;;;;;;;5111439;27;20203;-74
2021/11/27 13:42:02;;;;;;;5.37;1.27;;;;;;;;;;5112192;28;20197;-75
2021/11/27 13:44:34;;;;;;;6.63;1.30;;;;;;;;;;5112263;28;20281;-75
2021/11/27 13:47:02;;;;;;;5.83;1.30;;;;;;;;;;5112857;28;20202;-74
2021/11/27 13:49:30;;;;;;;6.40;1.70;;;;;;;;;;5112296;28;20196;-72
2021/11/27 13:51:59;;;;;;;5.27;1.20;;;;;;;;;;5106945;28;20288;-74
2021/11/27 13:54:29;;;;;;;3.67;1.33;;;;;;;;;;5111125;28;20249;-74
2021/11/27 13:56:57;;;;;;;4.93;1.00;;;;;;;;;;5112134;28;20278;-74
2021/11/27 13:59:24;;;;;;;3.97;1.10;;;;;;;;;;5111770;28;20305;-75
2021/11/27 14:01:58;;;;;;;2.60;0.80;;;;;;;;;;5112674;28;20378;-74
2021/11/27 14:04:26;;;;;;;3.87;1.10;;;;;;;;;;5111616;28;20245;-74
2021/11/27 14:06:59;;;;;;;2.87;0.83;;;;;;;;;;5112235;28;20685;-74
2021/11/27 14:09:41;;;;;;;4.37;1.10;;;;;;;;;;5111421;28;20236;-74
2021/11/27 14:12:23;;;;;;;3.33;0.80;;;;;;;;;;5104597;28;20285;-75
2021/11/27 14:14:53;;;;;;;3.43;1.27;;;;;;;;;;5110725;28;20627;-74
2021/11/27 14:17:21;;;;;;;4.13;1.80;;;;;;;;;;5112491;28;20205;-74
2021/11/27 14:19:48;;;;;;;3.97;1.27;;;;;;;;;;5111666;28;20221;-75
2021/11/27 14:22:16;;;;;;;5.53;2.83;;;;;;;;;;5112138;28;20196;-75
2021/11/27 14:24:44;;;;;;;3.60;1.27;;;;;;;;;;5110153;28;20292;-75
2021/11/27 14:27:11;;;;;;;6.87;3.93;;;;;;;;;;5110057;28;20236;-75
2021/11/27 14:29:39;;;;;;;6.40;2.00;;;;;;;;;;5110796;28;20673;-75
2021/11/27 14:32:17;;;;;;;4.93;1.87;;;;;;;;;;5110458;28;20744;-75
2021/11/27 14:34:45;;;;;;;1.97;1.10;;;;;;;;;;5111242;27;20220;-75
2021/11/27 14:37:12;;;;;;;3.93;1.10;;;;;;;;;;5110598;28;20211;-75
2021/11/27 14:39:41;;;;;;;3.17;0.90;;;;;;;;;;5111430;28;20283;-75
2021/11/27 14:42:10;;;;;;;3.30;1.00;;;;;;;;;;5111118;28;20308;-75
2021/11/27 14:44:37;;;;;;;3.83;1.23;;;;;;;;;;5110333;28;20208;-74
2021/11/27 14:47:06;;;;;;;6.07;2.20;;;;;;;;;;5111002;28;20212;-74
2021/11/27 14:49:34;;;;;;;4.43;1.40;;;;;;;;;;5111289;28;20585;-74
2021/11/27 14:52:03;;;;;;;2.70;1.00;;;;;;;;;;5109130;28;20231;-74